Nearby METAR Reports

 

YAMB - Amberley, Australia
Distance from station: SSE 73km
Updated: 27/01/2022 14:30
Nearby showers, Mostly cloudy
Nearby showers, Mostly cloudy
 Wind from E
Wind: E 15 km/h
Temperature: 27°C
Heat Index: 28°C
Dew Point: 19°C
Humidity: 62%
Barometer: 1012 hPa
Summary: Nearby Showers
Clouds: Mostly cloudy
Visibility: 10 km
Cloud details: Partly cloudy 1097 m
Mostly cloudy 1798 m
Mostly cloudy 2134 m
2022/01/27 04:30 YAMB 270430Z 09008KT 9999 VCSH SCT036 BKN059 BKN070 27/19 Q1012
YBBN - Brisbane Intl Ar, Australia
Distance from station: SE 74km
Updated: 27/01/2022 14:30
Nearby showers, Overcast
Nearby showers, Overcast
 Wind from ESE
Wind: ESE 13 km/h
Temperature: 26°C
Dew Point: 19°C
Humidity: 65%
Barometer: 1013 hPa
Summary: Nearby Showers
Clouds: Overcast
Visibility: 10 km
Cloud details: Partly cloudy 1067 m
Overcast 1372 m
2022/01/27 04:30 YBBN 270430Z 12007KT 9999 VCSH SCT035 OVC045 26/19 Q1013
 
YKRY - Kingaroy Arpt, Australia
Distance from station: NW 83km
Updated: 27/01/2022 14:00
Overcast
Overcast
 Wind from SE
Wind: SE 15 km/h
Temperature: 24°C
Dew Point: 18°C
Humidity: 69%
Barometer: 1014 hPa
Clouds: Overcast
Visibility: 10 km
Cloud details: Mostly cloudy 792 m
Overcast 975 m
2022/01/27 04:00 YKRY 270400Z AUTO 13008KT 9999 // BKN026 OVC032 24/18 Q1014
YBOK - Oakey (army/Civ), Australia
Distance from station: WSW 92km
Updated: 27/01/2022 14:00
Mostly cloudy
Mostly cloudy
 Wind from E
Wind: E 26 km/h
Temperature: 26°C
Dew Point: 18°C
Humidity: 61%
Barometer: 1014 hPa
Clouds: Mostly cloudy
Visibility: 10 km
Cloud details: Mostly cloudy 914 m
Mostly cloudy 1676 m
2022/01/27 04:00 YBOK 270400Z 08014KT 9999 BKN030 BKN055 26/18 Q1014
 
YBCG - Coolangatta Aws, Australia
Distance from station: SE 162km
Updated: 27/01/2022 14:30
Clear
Clear
 Wind from SSE
Wind: SSE 24 km/h
Temperature: 28°C
Heat Index: 28°C
Dew Point: 17°C
Humidity: 51%
Barometer: 1013 hPa
Clouds: Clear
Visibility: 10 km
2022/01/27 04:30 YBCG 270430Z AUTO 15013KT 9999 // NCD 28/17 Q1013 RF00.0/000.0
YCAS - Casino Airport, Australia
Distance from station: SSE 216km
Updated: 27/01/2022 14:00

 Wind from ESE
Wind: ESE 19 km/h
Temperature: 28°C
Heat Index: 29°C
Dew Point: 18°C
Humidity: 55%
Barometer: 1013 hPa
2022/01/27 04:00 YCAS 270400Z AUTO 11010KT //// // ////// 28/18 Q1013
 
YLIS - Lismore Arpt, Australia
Distance from station: SSE 216km
Updated: 27/01/2022 14:00
Partly cloudy
Partly cloudy
 Wind from SE
Wind: SE 19 km/h
Temperature: 28°C
Heat Index: 29°C
Dew Point: 19°C
Humidity: 58%
Barometer: 1013 hPa
Clouds: Partly cloudy
Visibility: 10 km
Cloud details: Partly cloudy 1158 m
2022/01/27 04:00 YLIS 270400Z AUTO 14010KT 9999 // SCT038 28/19 Q1013
YBNA - Ballina Byron G., Australia
Distance from station: SSE 228km
Updated: 27/01/2022 14:00
Partly cloudy
Partly cloudy
 Wind from SE
Wind: SE 20 km/h
Temperature: 26°C
Dew Point: 19°C
Humidity: 65%
Barometer: 1014 hPa
Clouds: Partly cloudy
Visibility: 10 km
Cloud details: Partly cloudy 823 m
Partly cloudy 1006 m
Partly cloudy 1219 m
2022/01/27 04:00 YBNA 270400Z AUTO 13011KT 9999 // SCT027 SCT033 SCT040 26/19 Q1014
 
YBUD - Bundaberg, Australia
Distance from station: N 235km
Updated: 27/01/2022 14:00
Overcast
Overcast
 Wind from ESE
Wind: ESE 24 km/h
Temperature: 29°C
Heat Index: 30°C
Dew Point: 19°C
Humidity: 55%
Barometer: 1011 hPa
Clouds: Overcast
Visibility: 10 km
Cloud details: Mostly cloudy 1128 m
Overcast 1433 m
2022/01/27 04:00 YBUD 270400Z AUTO 12013KT 9999 // BKN037 OVC047 29/19 Q1011
YGFN - Grafton Arpt, Australia
Distance from station: S 311km
Updated: 27/01/2022 14:00
Overcast
Overcast
 Wind from E
Wind: E 15 km/h
Temperature: 26°C
Dew Point: 19°C
Humidity: 65%
Barometer: 1014 hPa
Clouds: Overcast
Visibility: 10 km
Cloud details: Partly cloudy 1341 m
Overcast 1859 m
2022/01/27 04:00 YGFN 270400Z AUTO 10008KT 9999 // SCT044 OVC061 26/19 Q1014
 
YGLA - Gladstone, Australia
Distance from station: NNW 372km
Updated: 27/01/2022 14:45
Overcast
Overcast
 Wind from SSE
Wind: SSE 7 km/h
Temperature: 25°C
Dew Point: 23°C
Humidity: 89%
Barometer: 1010 hPa
Clouds: Overcast
Visibility: 10 km
Cloud details: Partly cloudy 244 m
Partly cloudy 488 m
Overcast 2195 m
2022/01/27 04:45 YGLA 270445Z AUTO 16004KT 9999 // SCT008 SCT016 OVC072 25/23 Q1010
YCFS - Coffs Harbour, Australia
Distance from station: S 373km
Updated: 27/01/2022 14:30
Overcast
Overcast
 Wind from E
Wind: E 17 km/h
Temperature: 25°C
Dew Point: 18°C
Humidity: 65%
Barometer: 1015 hPa
Clouds: Overcast
Visibility: 10 km
Cloud details: Overcast 1890 m
2022/01/27 04:30 YCFS 270430Z AUTO 08009KT 9999 // OVC062 25/18 Q1015 RF00.0/000.0
 
YMOR - Moree Arpt, Australia
Distance from station: SW 381km
Updated: 27/01/2022 14:00
Overcast
Overcast
 Wind from E
Wind: E 30 km/h
Temperature: 25°C
Dew Point: 20°C
Humidity: 74%
Barometer: 1012 hPa
Clouds: Overcast
Visibility: 10 km
Cloud details: Mostly cloudy 457 m
Overcast 1097 m
2022/01/27 04:00 YMOR 270400Z AUTO 08016KT 9999 // BKN015 OVC036 25/20 Q1012
YNBR - Narrabri, Australia
Distance from station: SW 452km
Updated: 25/01/2022 20:00
NOT Current
Partly cloudy
Partly cloudy
 Wind from SSE
Wind: SSE 6 km/h
Temperature: 22°C
Dew Point: 20°C
Humidity: 88%
Barometer: 1010 hPa
Clouds: Partly cloudy
Visibility: 10 km
Cloud details: Partly cloudy 3353 m
2022/01/25 10:00 YNBR 251000Z AUTO 16003KT 9999 // SCT110 22/20 Q1010
 
YBRK - Rockhampton Airp, Australia
Distance from station: NNW 454km
Updated: 27/01/2022 14:30
Mostly cloudy
Mostly cloudy
 Wind from E
Wind: E 17 km/h
Temperature: 26°C
Dew Point: 22°C
Humidity: 79%
Barometer: 1010 hPa
Clouds: Mostly cloudy
Visibility: 10 km
Cloud details: Partly cloudy 488 m
Partly cloudy 1311 m
Mostly cloudy 1707 m
2022/01/27 04:30 YBRK 270430Z AUTO 10009KT 9999 // SCT016 SCT043 BKN056 26/22 Q1010
YSTW - Tamworth Airport, Australia
Distance from station: SSW 480km
Updated: 27/01/2022 14:30
Overcast
Overcast
 Wind from WNW
Wind: WNW 6 km/h
Temperature: 30°C
Heat Index: 32°C
Dew Point: 20°C
Humidity: 55%
Barometer: 1012 hPa
Clouds: Overcast
Visibility: 10 km
Cloud details: Partly cloudy 1311 m
Overcast 2012 m
2022/01/27 04:30 YSTW 270430Z AUTO 29003KT 9999 // SCT043 OVC066 30/20 Q1012
 
YPMQ - Port Macquarie, Australia
Distance from station: S 494km
Updated: 24/01/2022 22:30
NOT Current
Overcast
Overcast
 Wind from S
Wind: S 2 km/h
Temperature: 21°C
Dew Point: 20°C
Humidity: 94%
Barometer: 1011 hPa
Clouds: Overcast
Visibility: 10 km
Cloud details: Mostly cloudy 945 m
Overcast 1189 m
2022/01/24 12:30 YPMQ 241230Z AUTO 19001KT 9999 // BKN031 OVC039 21/20 Q1011